Time;durP1;ratioP1;P1;durP2;ratioP2;P2;SDS_P1;SDS_P2;PMS_P1;PMS_P2;Temp;Humidity;BMP_temperature;BMP_pressure;BME280_temperature;BME280_humidity;BME280_pressure;Samples;Min_cycle;Max_cycle;Signal;HPM_P1;HPM_P2
2022/08/31 00:03:53;;;;;;;1.25;0.52;;;;;;;16.25;70.70;101196.81;5060802;28;20051;-72
2022/08/31 00:06:19;;;;;;;1.27;0.73;;;;;;;16.21;70.67;101189.09;5056621;28;20029;-71
2022/08/31 00:08:45;;;;;;;1.73;0.98;;;;;;;16.22;70.68;101185.25;5047783;28;20036;-72
2022/08/31 00:11:12;;;;;;;2.42;0.60;;;;;;;16.20;71.03;101181.94;5048941;28;20526;-71
2022/08/31 00:13:42;;;;;;;2.50;1.27;;;;;;;16.16;71.32;101183.59;5046877;28;20037;-70
2022/08/31 00:16:10;;;;;;;3.40;0.82;;;;;;;16.12;71.29;101182.56;5040194;28;20063;-71
2022/08/31 00:18:37;;;;;;;1.40;0.70;;;;;;;16.08;71.15;101180.63;5047677;28;20083;-71
2022/08/31 00:21:03;;;;;;;1.55;0.70;;;;;;;16.00;71.63;101173.78;5057347;28;20693;-72
2022/08/31 00:23:28;;;;;;;2.42;0.77;;;;;;;15.97;71.38;101179.88;5050627;28;20032;-71
2022/08/31 00:25:54;;;;;;;1.40;0.90;;;;;;;16.00;71.75;101184.81;5053602;28;20087;-71
2022/08/31 00:28:20;;;;;;;2.85;1.10;;;;;;;16.01;71.54;101178.19;5042356;28;20009;-72
2022/08/31 00:30:46;;;;;;;2.40;1.20;;;;;;;16.01;72.07;101178.19;5049606;28;20028;-71
2022/08/31 00:33:12;;;;;;;1.92;1.17;;;;;;;16.04;72.12;101174.84;5045825;28;20042;-71
2022/08/31 00:35:40;;;;;;;1.75;0.88;;;;;;;16.15;71.95;101184.75;5044601;28;20043;-71
2022/08/31 00:38:06;;;;;;;1.60;0.90;;;;;;;16.18;71.59;101186.91;5060145;28;20021;-71
2022/08/31 00:40:33;;;;;;;2.63;0.90;;;;;;;16.15;72.00;101186.66;5051483;28;20032;-73
2022/08/31 00:43:00;;;;;;;3.80;0.93;;;;;;;16.16;71.91;101188.31;5031319;28;20044;-72
2022/08/31 00:45:25;;;;;;;1.15;0.80;;;;;;;16.13;72.05;101192.44;5041901;28;20036;-71
2022/08/31 00:47:54;;;;;;;1.48;0.77;;;;;;;16.09;71.95;101188.63;5054101;28;20036;-71
2022/08/31 00:50:22;;;;;;;1.92;0.70;;;;;;;16.03;71.99;101189.75;5053542;28;20027;-72
2022/08/31 00:52:54;;;;;;;1.23;0.80;;;;;;;15.94;72.08;101184.00;5049058;28;20506;-72
2022/08/31 00:55:30;;;;;;;2.30;0.90;;;;;;;15.93;72.18;101189.81;5048150;28;20068;-73
2022/08/31 00:58:00;;;;;;;1.65;0.98;;;;;;;15.87;72.03;101189.84;5052465;28;20017;-73
2022/08/31 01:00:27;;;;;;;2.33;0.70;;;;;;;15.83;72.04;101191.53;5048555;28;20088;-72
2022/08/31 01:02:55;;;;;;;1.08;0.70;;;;;;;15.77;72.58;101198.13;5050283;28;20080;-71
2022/08/31 01:05:20;;;;;;;1.05;0.70;;;;;;;15.69;72.20;101184.94;5050186;28;20104;-71
2022/08/31 01:07:48;;;;;;;1.63;0.70;;;;;;;15.82;72.42;101189.03;5044399;28;20033;-70
2022/08/31 01:10:15;;;;;;;1.52;0.70;;;;;;;15.80;72.30;101188.47;5040544;28;20049;-71
2022/08/31 01:12:44;;;;;;;1.02;0.70;;;;;;;15.76;72.36;101179.13;5038725;28;20040;-71
2022/08/31 01:15:10;;;;;;;1.35;1.00;;;;;;;15.66;72.51;101180.78;5041063;28;20056;-72
2022/08/31 01:17:37;;;;;;;0.95;0.60;;;;;;;15.61;72.88;101183.59;5030364;28;20175;-72
2022/08/31 01:20:07;;;;;;;2.65;0.68;;;;;;;15.51;73.09;101178.94;5054145;28;20025;-72
2022/08/31 01:23:00;;;;;;;2.28;1.02;;;;;;;15.43;73.20;101182.25;5076293;28;20040;-72
2022/08/31 01:25:25;;;;;;;1.38;0.70;;;;;;;15.33;74.06;101187.78;5012379;28;20045;-73
2022/08/31 01:27:52;;;;;;;1.10;0.80;;;;;;;15.25;73.98;101185.63;5033765;28;20083;-72
2022/08/31 01:30:24;;;;;;;1.70;0.70;;;;;;;15.21;74.42;101187.28;5039351;28;20087;-72
2022/08/31 01:32:50;;;;;;;1.55;0.90;;;;;;;15.26;74.66;101190.00;5054484;28;20037;-71
2022/08/31 01:35:16;;;;;;;1.83;1.00;;;;;;;15.25;74.49;101186.44;5046957;28;20112;-71
2022/08/31 01:37:42;;;;;;;2.03;1.13;;;;;;;15.26;74.62;101187.25;5043304;28;20017;-72
2022/08/31 01:40:08;;;;;;;2.53;1.05;;;;;;;15.38;74.36;101196.06;5051065;28;20895;-71
2022/08/31 01:42:34;;;;;;;2.65;1.00;;;;;;;15.40;74.02;101187.50;5045812;28;20036;-71
2022/08/31 01:44:59;;;;;;;2.83;1.08;;;;;;;15.38;74.24;101189.72;5051080;28;20033;-71
2022/08/31 01:47:25;;;;;;;2.35;1.00;;;;;;;15.27;74.36;101184.22;5034258;28;20052;-71
2022/08/31 01:49:51;;;;;;;2.38;1.02;;;;;;;15.27;74.58;101186.16;5017261;28;20032;-72
2022/08/31 01:52:18;;;;;;;2.08;0.82;;;;;;;15.37;74.52;101194.41;5031894;28;20037;-71
2022/08/31 01:54:44;;;;;;;3.67;1.30;;;;;;;15.34;74.56;101200.47;5040109;28;20159;-71
2022/08/31 01:57:14;;;;;;;2.00;1.00;;;;;;;15.26;74.82;101187.25;5039785;28;20028;-72
2022/08/31 01:59:40;;;;;;;2.10;0.70;;;;;;;15.28;74.95;101196.91;5053058;28;20043;-72
2022/08/31 02:02:09;;;;;;;2.85;0.95;;;;;;;15.31;75.32;101196.34;5034990;28;20045;-71
2022/08/31 02:04:35;;;;;;;2.67;1.38;;;;;;;15.34;75.09;101194.97;5046558;28;20137;-71
2022/08/31 02:07:01;;;;;;;1.90;1.20;;;;;;;15.32;75.23;101186.16;5047536;28;20024;-72
2022/08/31 02:09:28;;;;;;;3.72;1.02;;;;;;;15.27;75.19;101183.41;5032972;28;20029;-72
2022/08/31 02:11:55;;;;;;;1.75;1.10;;;;;;;15.25;75.57;101185.63;5049115;28;20040;-72
2022/08/31 02:14:22;;;;;;;1.27;0.77;;;;;;;15.21;75.56;101187.28;5032610;28;20468;-72
2022/08/31 02:16:48;;;;;;;5.68;1.30;;;;;;;15.16;75.21;101199.97;5051367;28;20113;-71
2022/08/31 02:19:16;;;;;;;2.83;1.27;;;;;;;15.07;75.96;101190.63;5052931;28;20027;-72
2022/08/31 02:21:41;;;;;;;2.90;1.20;;;;;;;15.10;75.69;101190.06;5051861;28;20052;-70
2022/08/31 02:24:10;;;;;;;2.45;1.05;;;;;;;15.12;75.90;101185.09;5035170;28;20479;-71
2022/08/31 02:26:36;;;;;;;2.97;1.20;;;;;;;15.10;75.77;101190.06;5054993;28;20071;-71
2022/08/31 02:29:01;;;;;;;3.80;1.52;;;;;;;15.08;76.21;101195.00;5043052;28;20170;-71
2022/08/31 02:31:27;;;;;;;3.60;1.30;;;;;;;15.05;76.22;101198.31;5032233;28;20581;-72
2022/08/31 02:33:52;;;;;;;3.55;0.98;;;;;;;14.99;76.05;101199.44;5042518;28;20075;-72
2022/08/31 02:36:18;;;;;;;2.53;0.98;;;;;;;14.90;76.83;101192.84;5036932;28;20509;-71
2022/08/31 02:38:43;;;;;;;2.15;1.05;;;;;;;14.81;76.48;101187.88;5050912;28;20407;-73
2022/08/31 02:41:09;;;;;;;4.85;1.20;;;;;;;14.76;77.24;101190.66;5050120;28;20032;-72
2022/08/31 02:43:34;;;;;;;2.40;1.10;;;;;;;14.75;77.56;101193.69;5053688;28;20040;-71
2022/08/31 02:45:59;;;;;;;3.10;1.30;;;;;;;14.81;77.52;101192.56;5055710;28;20021;-72
2022/08/31 02:48:25;;;;;;;2.75;1.20;;;;;;;14.77;77.40;101192.28;5050727;28;20026;-72
2022/08/31 02:50:52;;;;;;;1.35;1.00;;;;;;;14.78;77.50;101182.94;5061845;28;20028;-72
2022/08/31 02:53:20;;;;;;;1.70;1.17;;;;;;;14.74;77.23;101187.31;5053183;28;20037;-71
2022/08/31 02:55:46;;;;;;;3.17;1.60;;;;;;;14.74;77.76;101190.06;5037521;28;20059;-71
2022/08/31 02:58:13;;;;;;;2.63;1.23;;;;;;;14.72;77.73;101183.19;5048023;28;20024;-71
2022/08/31 03:00:43;;;;;;;2.83;1.17;;;;;;;14.63;77.74;101189.25;5056296;28;20028;-72
2022/08/31 03:03:08;;;;;;;2.10;1.15;;;;;;;14.58;77.76;101183.72;5054298;28;20056;-72
2022/08/31 03:05:34;;;;;;;2.25;1.13;;;;;;;14.52;78.07;101189.50;5063189;28;20029;-71
2022/08/31 03:07:59;;;;;;;3.47;1.17;;;;;;;14.44;78.44;101186.19;5054974;28;20017;-73
2022/08/31 03:10:25;;;;;;;1.67;0.93;;;;;;;14.45;78.39;101174.06;5044509;28;20029;-71
2022/08/31 03:12:52;;;;;;;2.20;1.15;;;;;;;14.49;78.65;101179.84;5048755;28;20021;-71
2022/08/31 03:15:20;;;;;;;4.30;1.15;;;;;;;14.56;78.55;101185.06;5048187;28;20438;-72
2022/08/31 03:17:46;;;;;;;2.30;1.20;;;;;;;14.51;78.20;101177.66;5052244;28;20071;-71
2022/08/31 03:20:12;;;;;;;2.67;1.33;;;;;;;14.43;78.47;101178.22;5054494;28;20029;-71
2022/08/31 03:22:38;;;;;;;3.60;1.27;;;;;;;14.43;78.31;101179.03;5044055;28;20041;-72
2022/08/31 03:25:06;;;;;;;2.55;1.08;;;;;;;14.44;78.60;101183.44;5053234;28;20021;-72
2022/08/31 03:27:32;;;;;;;4.70;1.38;;;;;;;14.43;78.59;101181.78;5046006;28;20056;-71
2022/08/31 03:29:57;;;;;;;2.05;1.00;;;;;;;14.52;78.16;101178.50;5062526;28;20067;-70
2022/08/31 03:32:26;;;;;;;2.45;1.08;;;;;;;14.61;77.74;101182.34;5058382;28;20478;-72
2022/08/31 03:34:56;;;;;;;2.72;1.17;;;;;;;14.56;77.79;101180.41;5044966;28;20029;-72
2022/08/31 03:37:21;;;;;;;2.05;1.10;;;;;;;14.54;77.60;101187.28;5046465;28;20033;-72
2022/08/31 03:39:47;;;;;;;1.33;1.02;;;;;;;14.50;77.70;101178.78;5063635;28;20101;-72
2022/08/31 03:42:13;;;;;;;4.63;1.10;;;;;;;14.55;77.81;101177.94;5045836;28;20134;-72
2022/08/31 03:44:38;;;;;;;3.42;1.38;;;;;;;14.53;77.74;101182.88;5051449;28;20111;-72
2022/08/31 03:47:04;;;;;;;2.97;1.50;;;;;;;14.46;77.85;101174.91;5048051;28;20033;-71
2022/08/31 03:49:29;;;;;;;3.00;1.15;;;;;;;14.40;77.96;101176.00;5049449;28;20033;-72
2022/08/31 03:51:55;;;;;;;5.78;1.50;;;;;;;14.36;77.88;101175.72;5049993;28;20107;-72
2022/08/31 03:54:20;;;;;;;3.63;1.40;;;;;;;14.30;78.05;101168.56;5053433;28;20036;-72
2022/08/31 03:56:46;;;;;;;2.70;1.27;;;;;;;14.25;78.51;101163.03;5050632;28;20036;-71
2022/08/31 03:59:12;;;;;;;2.42;0.90;;;;;;;14.25;78.55;101168.53;5035675;28;20092;-70
2022/08/31 04:01:38;;;;;;;2.58;1.30;;;;;;;14.26;78.72;101171.00;5053721;28;20583;-71
2022/08/31 04:04:04;;;;;;;2.20;1.10;;;;;;;14.29;78.28;101177.91;5045418;28;20102;-72
2022/08/31 04:06:29;;;;;;;2.75;1.30;;;;;;;14.32;78.54;101174.59;5055153;28;20040;-71
2022/08/31 04:08:55;;;;;;;2.63;1.30;;;;;;;14.31;78.34;101164.72;5050804;28;20029;-71
2022/08/31 04:11:21;;;;;;;4.40;1.48;;;;;;;14.23;78.16;101168.00;5042113;28;20033;-71
2022/08/31 04:13:47;;;;;;;5.07;1.60;;;;;;;14.18;78.66;101165.22;5057130;28;20230;-71
2022/08/31 04:16:19;;;;;;;2.50;1.10;;;;;;;14.10;78.34;101170.16;5051837;28;20030;-73
2022/08/31 04:18:45;;;;;;;4.93;1.20;;;;;;;14.05;78.77;101161.91;5055746;28;20024;-72
2022/08/31 04:21:16;;;;;;;4.70;1.30;;;;;;;13.97;79.27;101170.69;5043376;28;20033;-71
2022/08/31 04:23:42;;;;;;;2.55;1.30;;;;;;;13.88;79.23;101175.06;5052919;28;20123;-72
2022/08/31 04:26:18;;;;;;;2.85;1.40;;;;;;;13.83;79.62;101166.78;5049703;28;20049;-72
2022/08/31 04:28:44;;;;;;;2.83;1.17;;;;;;;13.74;79.51;101170.06;5042242;28;20029;-71
2022/08/31 04:31:10;;;;;;;4.88;1.55;;;;;;;13.74;79.56;101183.81;5047628;28;20031;-72
2022/08/31 04:33:37;;;;;;;4.75;1.40;;;;;;;13.66;80.00;101181.56;5037035;28;20487;-72
2022/08/31 04:36:07;;;;;;;4.13;1.38;;;;;;;13.60;79.53;101185.38;5037935;28;20060;-71
2022/08/31 04:38:32;;;;;;;2.35;1.15;;;;;;;13.59;79.90;101183.72;5049661;28;20032;-71
2022/08/31 04:41:03;;;;;;;2.78;1.30;;;;;;;13.54;79.98;101186.47;5059188;28;20087;-72
2022/08/31 04:43:29;;;;;;;3.20;1.25;;;;;;;13.50;79.99;101177.09;5052789;28;20039;-72
2022/08/31 04:45:55;;;;;;;2.53;1.10;;;;;;;13.51;79.94;101171.34;5054871;28;20032;-71
2022/08/31 04:48:20;;;;;;;1.92;1.17;;;;;;;13.49;80.39;101172.69;5046666;28;20393;-71
2022/08/31 04:50:47;;;;;;;4.07;1.50;;;;;;;13.43;80.02;101180.94;5050631;28;20043;-70
2022/08/31 04:53:13;;;;;;;4.95;1.85;;;;;;;13.53;80.59;101182.06;5028469;28;20032;-72
2022/08/31 04:55:40;;;;;;;2.78;1.30;;;;;;;13.58;80.17;101185.66;5045808;28;20031;-71
2022/08/31 04:58:05;;;;;;;3.33;1.40;;;;;;;13.54;79.91;101178.22;5051951;28;20027;-71
2022/08/31 05:00:30;;;;;;;2.78;1.23;;;;;;;13.47;79.58;101186.69;5046747;28;20097;-71
2022/08/31 05:02:56;;;;;;;2.75;1.20;;;;;;;13.38;79.71;101178.13;5052404;28;20060;-71
2022/08/31 05:05:21;;;;;;;6.63;1.88;;;;;;;13.28;80.18;101178.06;5056289;28;20491;-72
2022/08/31 05:07:47;;;;;;;4.60;1.48;;;;;;;13.26;80.38;101174.75;5048363;28;20037;-71
2022/08/31 05:10:13;;;;;;;3.53;1.33;;;;;;;13.24;80.38;101171.44;5049273;28;20029;-72
2022/08/31 05:12:38;;;;;;;6.95;1.70;;;;;;;13.22;80.37;101166.19;5049574;28;20055;-72
2022/08/31 05:15:04;;;;;;;1.83;1.20;;;;;;;13.19;80.41;101168.66;5045246;28;20113;-71
2022/08/31 05:17:30;;;;;;;5.03;1.90;;;;;;;13.13;80.58;101159.56;5047162;28;20103;-71
2022/08/31 05:19:55;;;;;;;2.55;1.33;;;;;;;13.19;80.86;101185.16;5043521;28;20021;-70
2022/08/31 05:22:20;;;;;;;4.10;2.17;;;;;;;13.16;81.17;101177.44;5049432;28;20429;-71
2022/08/31 05:24:47;;;;;;;2.92;1.30;;;;;;;13.17;80.72;101176.31;5045896;28;20048;-71
2022/08/31 05:27:12;;;;;;;3.03;1.20;;;;;;;13.20;81.08;101173.03;5059505;28;20029;-71
2022/08/31 05:29:38;;;;;;;4.97;1.58;;;;;;;13.24;80.57;101175.03;5045470;28;20376;-71
2022/08/31 05:32:03;;;;;;;2.72;1.30;;;;;;;13.23;80.40;101178.03;5049433;28;20029;-71
2022/08/31 05:34:29;;;;;;;2.15;1.15;;;;;;;13.31;80.61;101180.25;5048697;28;20033;-73
2022/08/31 05:36:55;;;;;;;3.45;1.50;;;;;;;13.36;80.38;101169.34;5056679;28;20068;-71
2022/08/31 05:39:22;;;;;;;4.85;1.60;;;;;;;13.37;80.14;101181.97;5052369;28;20057;-71
2022/08/31 05:41:48;;;;;;;3.05;1.50;;;;;;;13.39;79.72;101179.81;5048942;28;20021;-71
2022/08/31 05:44:14;;;;;;;2.22;1.35;;;;;;;13.41;79.86;101177.59;5051528;28;20407;-71
2022/08/31 05:46:40;;;;;;;4.68;1.38;;;;;;;13.42;79.62;101178.44;5054767;28;20029;-72
2022/08/31 05:49:07;;;;;;;1.73;1.30;;;;;;;13.51;79.64;101176.03;5047304;28;20586;-71
2022/08/31 05:51:33;;;;;;;3.53;1.20;;;;;;;13.58;79.22;101182.06;5058985;28;20037;-71
2022/08/31 05:54:00;;;;;;;5.63;1.40;;;;;;;13.65;78.74;101173.59;5051993;28;20054;-72
2022/08/31 05:56:26;;;;;;;2.17;1.42;;;;;;;13.69;78.62;101183.78;5045896;28;20036;-70
2022/08/31 05:58:51;;;;;;;7.55;1.23;;;;;;;13.75;78.76;101187.38;5060009;28;20051;-72
2022/08/31 06:01:20;;;;;;;3.25;1.20;;;;;;;13.72;78.09;101182.41;5051607;28;20438;-72
2022/08/31 06:03:46;;;;;;;2.38;1.20;;;;;;;13.73;78.71;101189.56;5042605;28;20038;-72
2022/08/31 06:06:13;;;;;;;6.07;1.67;;;;;;;13.69;78.21;101182.97;5042331;28;20033;-71
2022/08/31 06:08:40;;;;;;;4.20;1.23;;;;;;;13.65;78.55;101190.91;5045442;28;20109;-73
2022/08/31 06:11:14;;;;;;;2.28;1.13;;;;;;;13.65;78.85;101182.66;5046610;28;20623;-71
2022/08/31 06:13:40;;;;;;;1.92;1.05;;;;;;;13.70;78.12;101185.44;5040141;28;20083;-72
2022/08/31 06:16:07;;;;;;;6.35;1.30;;;;;;;13.73;78.24;101190.41;5049569;28;20029;-72
2022/08/31 06:18:32;;;;;;;6.72;1.58;;;;;;;13.76;78.41;101189.84;5028137;28;20390;-73
2022/08/31 06:21:08;;;;;;;2.58;1.30;;;;;;;13.80;78.38;101195.66;5038865;28;20024;-72
2022/08/31 06:23:37;;;;;;;4.38;1.33;;;;;;;13.78;78.18;101193.19;5042099;28;20055;-70
2022/08/31 06:26:11;;;;;;;2.75;1.00;;;;;;;13.83;78.31;101205.25;5036256;28;20052;-69
2022/08/31 06:28:38;;;;;;;3.53;1.52;;;;;;;13.84;78.33;101202.25;5036166;28;20029;-72
2022/08/31 06:31:07;;;;;;;2.30;1.30;;;;;;;13.88;78.22;101203.38;5045931;28;20036;-72
2022/08/31 06:33:34;;;;;;;8.73;1.70;;;;;;;13.99;78.00;101203.41;5046417;28;20086;-73
2022/08/31 06:36:00;;;;;;;1.83;1.00;;;;;;;14.06;78.02;101204.81;5042997;28;20022;-71
2022/08/31 06:38:25;;;;;;;3.67;1.10;;;;;;;14.11;78.01;101209.50;5048705;28;20398;-72
2022/08/31 06:40:50;;;;;;;3.22;1.40;;;;;;;14.22;77.42;101213.09;5030856;28;20040;-73
2022/08/31 06:43:16;;;;;;;2.90;1.58;;;;;;;14.31;77.53;101209.56;5045412;28;20480;-71
2022/08/31 06:45:41;;;;;;;4.13;1.42;;;;;;;14.42;77.20;101207.63;5038846;28;20056;-71
2022/08/31 06:48:07;;;;;;;3.03;1.30;;;;;;;14.60;76.63;101197.19;5053596;28;20487;-71
2022/08/31 06:50:32;;;;;;;5.97;1.88;;;;;;;14.69;76.44;101201.09;5016623;28;20029;-71
2022/08/31 06:52:58;;;;;;;4.18;1.52;;;;;;;14.75;76.19;101208.25;5046432;28;20029;-75
2022/08/31 06:55:23;;;;;;;5.00;1.60;;;;;;;14.67;76.69;101214.28;5043500;28;20022;-74
2022/08/31 06:57:49;;;;;;;5.88;1.30;;;;;;;14.57;76.41;101214.25;5045258;28;20028;-76
2022/08/31 07:00:14;;;;;;;3.88;1.38;;;;;;;14.52;76.97;101217.84;5046935;28;20370;-75
2022/08/31 07:02:40;;;;;;;4.07;1.20;;;;;;;14.53;77.30;101218.66;5048043;28;20053;-75
2022/08/31 07:05:05;;;;;;;4.43;1.42;;;;;;;14.52;77.15;101211.50;5045002;28;20052;-75
2022/08/31 07:07:31;;;;;;;8.10;1.45;;;;;;;14.57;77.06;101214.25;5041230;28;20079;-75
2022/08/31 07:09:56;;;;;;;6.70;1.73;;;;;;;14.65;77.21;101211.00;5062391;28;20026;-74
2022/08/31 07:12:22;;;;;;;6.00;1.55;;;;;;;14.77;76.80;101214.31;5043172;28;20415;-74
2022/08/31 07:14:47;;;;;;;4.00;1.45;;;;;;;14.88;76.76;101222.56;5050921;28;20116;-74
2022/08/31 07:17:13;;;;;;;2.42;1.17;;;;;;;15.01;76.04;101219.28;5026208;28;20041;-74
2022/08/31 07:19:39;;;;;;;4.47;1.50;;;;;;;15.15;75.75;101219.53;5044897;28;20015;-74
2022/08/31 07:22:06;;;;;;;2.78;1.48;;;;;;;15.26;75.29;101223.06;5055036;28;20029;-74
2022/08/31 07:24:33;;;;;;;10.55;1.75;;;;;;;15.40;74.89;101226.91;5058436;28;20033;-74
2022/08/31 07:27:03;;;;;;;1.15;1.05;;;;;;;15.58;74.59;101232.94;5067037;28;20029;-74
2022/08/31 07:29:38;;;;;;;3.30;1.15;;;;;;;15.70;73.89;101228.75;5054986;28;20485;-74
2022/08/31 07:32:10;;;;;;;8.30;1.60;;;;;;;15.94;72.82;101227.31;5053164;28;20043;-76
2022/08/31 07:34:36;;;;;;;5.10;1.25;;;;;;;16.33;71.86;101232.09;5058338;28;20380;-74
2022/08/31 07:42:39;;;;;;;2.70;1.00;;;;;;;16.86;69.33;101229.50;5040740;28;20040;-75
2022/08/31 07:45:10;;;;;;;2.15;1.10;;;;;;;16.99;69.70;101235.50;5049468;28;20040;-75
2022/08/31 07:47:44;;;;;;;3.63;1.30;;;;;;;17.01;68.70;101234.13;5055211;28;20029;-74
2022/08/31 07:50:11;;;;;;;2.17;1.20;;;;;;;17.03;69.24;101233.81;5039639;28;20029;-73
2022/08/31 07:52:46;;;;;;;3.17;1.50;;;;;;;17.08;68.50;101236.53;5055451;28;20052;-74
2022/08/31 07:55:13;;;;;;;4.35;1.30;;;;;;;17.28;67.99;101233.56;5056460;28;20021;-73
2022/08/31 07:57:43;;;;;;;3.15;0.98;;;;;;;18.01;66.70;101230.03;5053721;28;20123;-74
2022/08/31 08:00:19;;;;;;;3.53;1.20;;;;;;;18.54;64.34;101232.59;5060033;28;20028;-72
2022/08/31 08:02:45;;;;;;;2.78;1.10;;;;;;;18.74;63.99;101230.63;5044860;28;20092;-71
2022/08/31 08:05:21;;;;;;;2.35;1.00;;;;;;;19.04;63.32;101234.03;5033817;28;20098;-73
2022/08/31 08:07:49;;;;;;;3.75;1.10;;;;;;;19.19;62.31;101231.00;5046625;28;20033;-73
2022/08/31 08:10:17;;;;;;;3.60;1.13;;;;;;;19.22;61.37;101222.06;5049061;28;20022;-73
2022/08/31 08:12:45;;;;;;;4.85;1.00;;;;;;;19.30;61.16;101226.94;5066183;28;20111;-71
2022/08/31 08:15:11;;;;;;;2.15;1.00;;;;;;;19.23;60.85;101220.97;5049194;28;20110;-71
2022/08/31 08:17:37;;;;;;;3.88;1.00;;;;;;;19.27;60.88;101227.50;5039539;28;20060;-72
2022/08/31 08:20:04;;;;;;;1.02;0.80;;;;;;;19.38;60.45;101219.00;5050830;28;20129;-73
2022/08/31 08:22:30;;;;;;;2.97;1.20;;;;;;;19.36;59.83;101213.75;5050079;28;20158;-72
2022/08/31 08:24:59;;;;;;;3.58;1.52;;;;;;;19.46;59.49;101223.84;5050186;28;20048;-73
2022/08/31 08:27:25;;;;;;;2.50;1.10;;;;;;;19.64;58.53;101211.84;5043447;28;20106;-72
2022/08/31 08:29:51;;;;;;;4.75;1.02;;;;;;;19.92;58.03;101217.41;5038254;28;20033;-73
2022/08/31 08:32:17;;;;;;;3.13;1.20;;;;;;;20.07;56.87;101223.75;5039522;28;20037;-71
2022/08/31 08:34:43;;;;;;;2.70;1.02;;;;;;;20.08;56.94;101220.69;5044588;28;20084;-72
2022/08/31 08:37:10;;;;;;;2.92;1.00;;;;;;;20.30;57.20;101214.34;5050189;28;20025;-73
2022/08/31 08:39:41;;;;;;;1.77;0.85;;;;;;;20.50;56.64;101212.22;5053231;28;20029;-73
2022/08/31 08:42:10;;;;;;;1.83;1.00;;;;;;;20.62;55.06;101204.16;5042833;28;20033;-72
2022/08/31 08:44:37;;;;;;;1.67;1.10;;;;;;;20.80;55.87;101215.44;5041814;28;20435;-72
2022/08/31 08:47:06;;;;;;;2.15;1.02;;;;;;;20.93;54.92;101208.97;5039813;28;20648;-72
2022/08/31 08:49:51;;;;;;;5.65;1.17;;;;;;;21.07;54.61;101211.66;5034215;28;20052;-74
2022/08/31 08:52:22;;;;;;;3.00;0.93;;;;;;;21.17;54.25;101207.78;5035320;28;20025;-71
2022/08/31 08:54:50;;;;;;;0.70;0.60;;;;;;;21.28;53.59;101209.97;5039985;28;20017;-72
2022/08/31 08:57:29;;;;;;;2.30;0.90;;;;;;;21.31;53.09;101214.09;5044450;28;20068;-72
2022/08/31 08:59:57;;;;;;;1.85;1.00;;;;;;;21.40;53.03;101212.16;5046509;28;20071;-72
2022/08/31 09:02:42;;;;;;;2.10;0.93;;;;;;;21.60;52.89;101210.00;5042354;28;20049;-72
2022/08/31 09:05:29;;;;;;;;;;;;;;;21.88;51.96;101209.75;5049718;28;20092;-73
2022/08/31 09:08:33;;;;;;;4.72;0.93;;;;;;;22.09;50.95;101210.78;5058154;28;19921;-72
2022/08/31 09:11:05;;;;;;;2.08;0.90;;;;;;;22.21;50.19;101201.78;5045936;28;20040;-74
2022/08/31 09:13:57;;;;;;;4.93;0.95;;;;;;;22.27;49.81;101211.59;5043222;28;20050;-71
2022/08/31 09:16:39;;;;;;;3.63;1.25;;;;;;;22.30;49.62;101210.94;5043870;28;20025;-71
2022/08/31 09:19:10;;;;;;;2.15;0.90;;;;;;;22.44;49.85;101202.47;5048546;28;20029;-74
2022/08/31 09:21:56;;;;;;;3.17;1.10;;;;;;;22.45;49.13;101206.88;5049809;28;20016;-73
2022/08/31 09:24:27;;;;;;;2.08;0.70;;;;;;;22.49;49.45;101201.50;5036386;28;20033;-73
2022/08/31 09:27:16;;;;;;;8.65;1.23;;;;;;;22.67;49.46;101205.88;5045242;28;20025;-73
2022/08/31 09:29:44;;;;;;;2.90;0.80;;;;;;;22.75;48.24;101198.69;5052400;28;20037;-74
2022/08/31 09:32:22;;;;;;;5.43;1.15;;;;;;;22.76;48.08;101197.50;5042057;28;20041;-73
2022/08/31 09:35:00;;;;;;;3.42;1.58;;;;;;;22.67;48.53;101196.72;5045890;28;20041;-72
2022/08/31 09:37:39;;;;;;;3.80;1.25;;;;;;;22.59;48.24;101195.56;5036257;28;20155;-73
2022/08/31 09:40:15;;;;;;;2.45;0.98;;;;;;;22.73;47.86;101189.81;5051981;28;20110;-72
2022/08/31 09:42:42;;;;;;;2.83;0.80;;;;;;;23.01;48.02;101183.84;5051282;28;20367;-72
2022/08/31 09:45:17;;;;;;;4.72;1.23;;;;;;;23.30;47.70;101185.09;5037663;28;20025;-73
2022/08/31 09:47:54;;;;;;;2.65;1.10;;;;;;;23.52;46.89;101182.06;5035596;28;20025;-73
2022/08/31 09:50:30;;;;;;;3.65;1.40;;;;;;;23.81;45.83;101183.19;5036869;28;20081;-72
2022/08/31 09:56:21;;;;;;;3.97;1.20;;;;;;;24.20;44.68;101175.56;5050826;28;20039;-73
2022/08/31 09:58:47;;;;;;;3.95;1.35;;;;;;;24.49;44.49;101173.03;5047883;28;20083;-73
2022/08/31 10:01:21;;;;;;;2.03;0.90;;;;;;;25.01;44.61;101169.69;5051575;28;20041;-72
2022/08/31 10:03:47;;;;;;;;;;;;;;;25.76;42.77;101170.63;5043096;28;20053;-71
2022/08/31 10:06:29;;;;;;;3.38;1.00;;;;;;;26.60;41.72;101161.50;5061598;28;19920;-72
2022/08/31 10:09:01;;;;;;;2.75;1.05;;;;;;;27.51;38.95;101159.06;5050447;28;20020;-72
2022/08/31 10:11:31;;;;;;;1.88;0.95;;;;;;;28.16;37.59;101171.81;5051161;28;20513;-73
2022/08/31 10:14:25;;;;;;;1.27;0.70;;;;;;;28.32;36.31;101166.13;5051385;28;20103;-72
2022/08/31 10:17:25;;;;;;;;;;;;;;;28.63;36.23;101173.59;5047236;28;20048;-72
2022/08/31 10:20:07;;;;;;;2.13;0.93;;;;;;;30.32;33.05;101164.25;5032100;28;19917;-73
2022/08/31 10:22:40;;;;;;;4.88;1.02;;;;;;;31.79;30.99;101159.22;5043428;28;20025;-72
2022/08/31 10:25:13;;;;;;;2.03;0.85;;;;;;;32.69;29.51;101161.66;5046326;28;20067;-74
2022/08/31 10:27:46;;;;;;;3.17;1.02;;;;;;;31.74;30.27;101165.25;5052388;28;20029;-73
2022/08/31 10:30:21;;;;;;;4.82;0.88;;;;;;;32.99;28.48;101161.31;5035854;28;20108;-72
2022/08/31 10:32:58;;;;;;;4.72;0.65;;;;;;;34.04;27.41;101162.03;5044190;28;20056;-71
2022/08/31 10:35:36;;;;;;;2.92;0.80;;;;;;;35.32;25.79;101162.94;5050232;28;20096;-72
2022/08/31 10:38:20;;;;;;;2.95;0.93;;;;;;;36.68;24.44;101161.38;5049808;28;20022;-72
2022/08/31 10:41:16;;;;;;;2.10;0.70;;;;;;;36.11;23.47;101167.81;5057258;28;20056;-72
2022/08/31 10:43:44;;;;;;;1.55;0.70;;;;;;;35.98;24.57;101159.84;5052327;28;20020;-72
2022/08/31 10:46:11;;;;;;;3.03;0.63;;;;;;;36.17;23.71;101160.41;5058313;28;20024;-72
2022/08/31 10:48:49;;;;;;;1.63;0.85;;;;;;;36.60;22.82;101154.16;5056718;28;20068;-71
2022/08/31 10:51:21;;;;;;;3.20;0.90;;;;;;;35.72;23.54;101160.50;5047937;28;20029;-72
2022/08/31 10:54:38;;;;;;;2.85;0.75;;;;;;;37.64;22.18;101154.50;5062225;28;20029;-72
2022/08/31 10:57:09;;;;;;;3.70;1.05;;;;;;;39.40;19.76;101149.78;5016785;28;20024;-71
2022/08/31 10:59:47;;;;;;;2.65;0.65;;;;;;;40.17;19.37;101157.09;5047173;28;20479;-70
2022/08/31 11:02:34;;;;;;;2.25;0.90;;;;;;;40.76;18.72;101152.81;5056679;28;20053;-72
2022/08/31 11:05:28;;;;;;;2.63;0.80;;;;;;;41.55;17.43;101145.66;5050420;28;20112;-72
2022/08/31 11:08:23;;;;;;;1.98;0.95;;;;;;;41.95;17.22;101142.16;5048222;28;20070;-71
2022/08/31 11:10:53;;;;;;;2.00;0.85;;;;;;;42.62;16.55;101143.66;5052892;28;20047;-72
2022/08/31 11:13:34;;;;;;;1.10;0.70;;;;;;;40.78;17.69;101129.41;5039923;28;20025;-72
2022/08/31 11:16:12;;;;;;;2.40;0.70;;;;;;;40.99;17.46;101147.97;5055112;28;20086;-71
2022/08/31 11:18:39;;;;;;;2.28;0.63;;;;;;;41.80;16.48;101122.59;5042785;28;20119;-72
2022/08/31 11:21:25;;;;;;;3.25;0.95;;;;;;;40.24;17.81;101133.97;5051959;28;20025;-72
2022/08/31 11:23:59;;;;;;;6.90;1.05;;;;;;;39.52;18.89;101127.41;5053567;28;20032;-73
2022/08/31 11:26:49;;;;;;;1.98;0.90;;;;;;;39.88;17.58;101126.41;5050047;28;20029;-72
2022/08/31 11:29:42;;;;;;;1.75;0.80;;;;;;;36.72;20.73;101115.72;5046278;28;20146;-71
2022/08/31 11:32:18;;;;;;;4.63;0.80;;;;;;;35.95;21.48;101109.47;5056254;28;20056;-73
2022/08/31 11:34:50;;;;;;;0.88;0.60;;;;;;;34.10;23.60;101109.31;5049232;28;20395;-72
2022/08/31 11:37:55;;;;;;;1.48;0.88;;;;;;;37.96;21.21;101115.97;5057806;28;20050;-72
2022/08/31 11:40:42;;;;;;;2.05;0.75;;;;;;;42.35;17.60;101112.72;5050273;28;20033;-73
2022/08/31 11:43:34;;;;;;;1.92;0.60;;;;;;;43.98;15.39;101118.09;5059189;28;20020;-72
2022/08/31 11:46:24;;;;;;;1.90;0.70;;;;;;;40.46;16.31;101111.97;5057128;28;20107;-73
2022/08/31 11:48:50;;;;;;;1.75;0.80;;;;;;;37.98;18.84;101104.13;5060942;28;20031;-72
2022/08/31 11:51:32;;;;;;;1.85;0.82;;;;;;;40.55;17.38;101090.44;5052593;28;20652;-71